Time;durP1;ratioP1;P1;durP2;ratioP2;P2;SDS_P1;SDS_P2;PMS_P1;PMS_P2;Temp;Humidity;BMP_temperature;BMP_pressure;BME280_temperature;BME280_humidity;BME280_pressure;Samples;Min_cycle;Max_cycle;Signal;HPM_P1;HPM_P2
2022/06/03 00:00:20;;;;;;;5.78;2.70;;;9.80;99.90;;;;;;5116051;28;20059;-88
2022/06/03 00:03:11;;;;;;;5.38;3.28;;;10.40;99.90;;;;;;5115515;28;20047;-89
2022/06/03 00:05:49;;;;;;;4.18;2.58;;;9.80;99.90;;;;;;5100653;28;20043;-89
2022/06/03 00:08:24;;;;;;;5.78;3.42;;;9.70;99.90;;;;;;5109254;28;20036;-89
2022/06/03 00:11:27;;;;;;;6.35;3.00;;;9.70;99.90;;;;;;5076287;28;20044;-89
2022/06/03 00:14:17;;;;;;;8.40;3.70;;;9.70;99.90;;;;;;5094635;28;20047;-89
2022/06/03 00:17:20;;;;;;;6.97;2.80;;;9.60;99.90;;;;;;5092245;28;20058;-89
2022/06/03 00:19:58;;;;;;;9.70;3.47;;;9.60;99.90;;;;;;5090486;28;20486;-89
2022/06/03 00:22:44;;;;;;;5.90;3.33;;;10.20;99.90;;;;;;5092571;28;20130;-89
2022/06/03 00:25:44;;;;;;;6.28;2.85;;;9.60;99.90;;;;;;5091554;28;20572;-89
2022/06/03 00:28:20;;;;;;;5.13;3.20;;;9.50;99.90;;;;;;5090274;28;20399;-89
2022/06/03 00:31:07;;;;;;;4.80;2.70;;;9.50;99.90;;;;;;5075314;28;20059;-89
2022/06/03 00:33:51;;;;;;;6.43;3.80;;;9.50;99.90;;;;;;5074191;28;20043;-89
2022/06/03 00:36:37;;;;;;;6.07;3.70;;;9.40;99.90;;;;;;5073848;28;20039;-89
2022/06/03 00:39:15;;;;;;;7.93;3.63;;;9.40;99.90;;;;;;5092845;28;20043;-89
2022/06/03 00:42:09;;;;;;;5.15;3.40;;;9.40;99.90;;;;;;5073719;28;20464;-88
2022/06/03 00:45:01;;;;;;;7.38;3.90;;;9.30;99.90;;;;;;5053612;28;20059;-89
2022/06/03 00:47:48;;;;;;;5.35;3.83;;;9.30;99.90;;;;;;5073703;28;20505;-88
2022/06/03 00:50:22;;;;;;;6.40;3.85;;;9.30;99.90;;;;;;5092332;28;20047;-86
2022/06/03 00:53:13;;;;;;;5.93;3.53;;;9.30;99.90;;;;;;5112093;28;20091;-88
2022/06/03 00:56:04;;;;;;;4.38;3.33;;;9.20;99.90;;;;;;5110640;28;20125;-88
2022/06/03 00:58:55;;;;;;;6.03;3.88;;;9.20;99.90;;;;;;5089360;28;20138;-89
2022/06/03 01:01:31;;;;;;;4.60;3.45;;;9.10;99.90;;;;;;5073553;28;20048;-88
2022/06/03 01:04:15;;;;;;;5.55;3.72;;;9.20;99.90;;;;;;5091635;28;20051;-89
2022/06/03 01:07:01;;;;;;;5.18;3.83;;;9.50;99.90;;;;;;5089171;28;20498;-88
2022/06/03 01:09:58;;;;;;;7.97;3.67;;;9.10;99.90;;;;;;5091304;28;20044;-88
2022/06/03 01:12:46;;;;;;;12.07;4.28;;;9.10;99.90;;;;;;5090876;28;20133;-88
2022/06/03 01:15:35;;;;;;;8.27;4.15;;;9.10;99.90;;;;;;5089008;28;20273;-87
2022/06/03 01:18:16;;;;;;;8.35;3.65;;;9.10;99.90;;;;;;5091314;28;20048;-89
2022/06/03 01:21:01;;;;;;;4.60;3.58;;;9.00;99.90;;;;;;5090355;28;20332;-88
2022/06/03 01:23:48;;;;;;;6.68;4.57;;;9.00;99.90;;;;;;5089016;28;20403;-89
2022/06/03 01:26:29;;;;;;;10.77;4.65;;;9.00;99.90;;;;;;5091601;28;20051;-88
2022/06/03 01:29:36;;;;;;;4.93;4.43;;;9.00;99.90;;;;;;5072903;28;20081;-87
2022/06/03 01:32:02;;;;;;;5.50;3.47;;;9.00;99.90;;;;;;5056275;28;20112;-88
2022/06/03 01:34:40;;;;;;;7.10;4.25;;;8.90;99.90;;;;;;5078868;28;20048;-88
2022/06/03 01:37:24;;;;;;;5.13;3.85;;;8.90;99.90;;;;;;5103028;28;20055;-89
2022/06/03 01:40:11;;;;;;;7.00;4.60;;;9.00;99.90;;;;;;5100419;28;20043;-90
2022/06/03 01:43:22;;;;;;;8.23;4.85;;;8.80;99.90;;;;;;5075144;28;20043;-89
2022/06/03 01:46:09;;;;;;;5.47;4.30;;;8.80;99.90;;;;;;5070434;28;20530;-90
2022/06/03 01:48:56;;;;;;;10.25;4.15;;;8.80;99.90;;;;;;5096701;28;20046;-89
2022/06/03 01:51:44;;;;;;;8.13;4.25;;;8.80;99.90;;;;;;5115616;28;20570;-89
2022/06/03 01:54:31;;;;;;;7.00;4.15;;;8.70;99.90;;;;;;5097283;27;20134;-88
2022/06/03 01:57:28;;;;;;;5.88;4.07;;;8.70;99.90;;;;;;5090870;28;20054;-89
2022/06/03 02:00:12;;;;;;;8.00;3.90;;;8.70;99.90;;;;;;5074597;28;20043;-89
2022/06/03 02:03:05;;;;;;;4.43;3.33;;;8.80;99.90;;;;;;5071897;28;20522;-90
2022/06/03 02:06:00;;;;;;;5.68;3.85;;;8.60;99.90;;;;;;5090191;28;20051;-89
2022/06/03 02:08:44;;;;;;;7.68;4.55;;;8.60;99.90;;;;;;5090825;28;20048;-89
2022/06/03 02:11:22;;;;;;;6.82;3.92;;;8.60;99.90;;;;;;5071751;28;20119;-89
2022/06/03 02:13:57;;;;;;;10.23;4.40;;;8.50;99.90;;;;;;5090062;28;20051;-90
2022/06/03 02:16:44;;;;;;;7.22;4.35;;;8.50;99.90;;;;;;5089779;28;20371;-89
2022/06/03 02:19:43;;;;;;;5.72;3.78;;;8.50;99.90;;;;;;5087334;28;20054;-90
2022/06/03 02:22:30;;;;;;;7.13;4.50;;;8.50;99.90;;;;;;5072898;28;20035;-90
2022/06/03 02:25:21;;;;;;;7.50;4.68;;;8.50;99.90;;;;;;5089785;28;20048;-90
2022/06/03 02:27:59;;;;;;;4.82;4.22;;;8.50;99.90;;;;;;5088263;28;20047;-90
2022/06/03 02:30:55;;;;;;;7.07;4.43;;;8.50;99.90;;;;;;5073871;28;20083;-88
2022/06/03 02:33:43;;;;;;;8.25;4.43;;;8.50;99.90;;;;;;5084010;28;20056;-89
2022/06/03 02:36:40;;;;;;;5.28;4.30;;;8.50;99.90;;;;;;5071287;28;20048;-89
2022/06/03 02:39:25;;;;;;;8.23;4.63;;;8.40;99.90;;;;;;5073321;28;20479;-90
2022/06/03 02:41:53;;;;;;;6.45;4.78;;;8.40;99.90;;;;;;5088858;28;20047;-90
2022/06/03 02:45:03;;;;;;;8.48;5.15;;;8.40;99.90;;;;;;5069930;28;20127;-90
2022/06/03 02:47:35;;;;;;;5.97;4.65;;;8.40;99.90;;;;;;5062066;28;20055;-90
2022/06/03 02:50:10;;;;;;;6.68;4.72;;;8.40;99.90;;;;;;5071995;28;20040;-90
2022/06/03 02:53:02;;;;;;;5.75;4.22;;;9.20;99.90;;;;;;5068937;28;20056;-90
2022/06/03 02:55:57;;;;;;;9.05;5.40;;;8.50;99.90;;;;;;5052906;28;20067;-90
2022/06/03 02:59:00;;;;;;;9.25;5.78;;;8.30;99.90;;;;;;5051056;28;20098;-90
2022/06/03 03:02:04;;;;;;;8.27;5.20;;;8.20;99.90;;;;;;5051872;28;20044;-90
2022/06/03 03:05:01;;;;;;;5.57;4.47;;;8.30;99.90;;;;;;5053297;28;20427;-90
2022/06/03 03:07:47;;;;;;;9.40;5.53;;;8.20;99.90;;;;;;5052478;28;20052;-90
2022/06/03 03:10:31;;;;;;;6.47;4.85;;;8.20;99.90;;;;;;5056110;28;20028;-90
2022/06/03 03:13:15;;;;;;;9.38;6.10;;;8.20;99.90;;;;;;5070131;28;20104;-91
2022/06/03 03:16:06;;;;;;;12.13;6.20;;;8.20;99.90;;;;;;5062490;28;20064;-89
2022/06/03 03:19:17;;;;;;;7.20;5.60;;;8.20;99.90;;;;;;5063371;28;20044;-89
2022/06/03 03:22:07;;;;;;;9.77;5.38;;;8.20;99.90;;;;;;5056130;28;20048;-91
2022/06/03 03:24:57;;;;;;;8.25;5.13;;;8.20;99.90;;;;;;5052354;28;20105;-91
2022/06/03 03:27:42;;;;;;;7.97;4.78;;;8.10;99.90;;;;;;5051549;28;20040;-90
2022/06/03 03:30:38;;;;;;;9.40;4.63;;;8.20;99.90;;;;;;5070387;28;20043;-91
2022/06/03 03:33:35;;;;;;;7.45;5.38;;;8.10;99.90;;;;;;5071652;28;20039;-89
2022/06/03 03:36:27;;;;;;;8.32;5.25;;;8.10;99.90;;;;;;5080611;28;20038;-91
2022/06/03 03:39:26;;;;;;;12.50;5.85;;;8.20;99.90;;;;;;5045647;28;20104;-90
2022/06/03 03:42:25;;;;;;;6.95;4.38;;;8.20;99.90;;;;;;5079444;28;20028;-90
2022/06/03 03:45:19;;;;;;;7.05;4.72;;;8.30;99.90;;;;;;5060304;28;20036;-90
2022/06/03 03:48:00;;;;;;;;;;;8.30;99.90;;;;;;5062434;28;20479;-90
2022/06/03 03:50:57;;;;;;;8.07;4.90;;;8.40;99.90;;;;;;5060865;28;20369;-90
2022/06/03 03:53:41;;;;;;;7.57;4.22;;;8.40;99.90;;;;;;5075453;28;20087;-90
2022/06/03 03:56:31;;;;;;;6.10;5.22;;;8.50;99.90;;;;;;5061321;28;20062;-91
2022/06/03 03:59:18;;;;;;;7.22;5.05;;;8.60;99.90;;;;;;5059948;28;20055;-89
2022/06/03 04:02:05;;;;;;;8.15;5.07;;;8.70;99.90;;;;;;5076281;28;20056;-89
2022/06/03 04:04:55;;;;;;;8.23;4.90;;;8.70;99.90;;;;;;5061145;28;20056;-91
2022/06/03 04:07:26;;;;;;;7.55;4.82;;;8.80;99.90;;;;;;5060534;28;20040;-93
2022/06/03 04:10:12;;;;;;;7.88;5.25;;;8.90;99.90;;;;;;5060627;28;20047;-92
2022/06/03 04:13:13;;;;;;;10.63;6.28;;;9.00;99.90;;;;;;5062144;28;20105;-94
2022/06/03 04:16:23;;;;;;;10.00;5.63;;;9.10;99.90;;;;;;5030065;28;20060;-94
2022/06/03 04:19:40;;;;;;;7.68;5.30;;;9.30;99.90;;;;;;5077457;28;20065;-93
2022/06/03 04:22:34;;;;;;;9.25;5.72;;;9.30;99.90;;;;;;5061306;28;20090;-94
2022/06/03 04:25:19;;;;;;;10.73;5.80;;;9.50;99.90;;;;;;5061118;28;20503;-93
2022/06/03 04:27:59;;;;;;;7.63;5.88;;;9.50;99.90;;;;;;5060498;28;20136;-93
2022/06/03 04:30:51;;;;;;;6.60;5.10;;;9.60;99.90;;;;;;5076973;28;20081;-92
2022/06/03 04:33:25;;;;;;;12.43;5.25;;;9.70;99.90;;;;;;5060394;28;20047;-91
2022/06/03 04:36:15;;;;;;;7.70;5.28;;;9.80;99.90;;;;;;5060323;28;20122;-94
2022/06/03 04:39:17;;;;;;;11.10;5.18;;;9.80;99.90;;;;;;5060380;28;20055;-92
2022/06/03 04:42:01;;;;;;;9.07;5.85;;;9.90;99.90;;;;;;5077404;28;20044;-92
2022/06/03 04:45:18;;;;;;;7.78;5.22;;;10.00;99.90;;;;;;5061859;28;20486;-94
2022/06/03 04:48:18;;;;;;;7.43;5.25;;;10.00;99.90;;;;;;5078324;28;20025;-94
2022/06/03 04:51:05;;;;;;;8.63;5.60;;;10.10;99.90;;;;;;5069366;28;20044;-93
2022/06/03 04:53:57;;;;;;;11.43;6.00;;;10.20;99.90;;;;;;5072596;28;20052;-92
2022/06/03 04:56:58;;;;;;;8.07;5.47;;;10.60;99.90;;;;;;5097169;28;20043;-91
2022/06/03 04:59:47;;;;;;;7.35;5.32;;;10.40;99.90;;;;;;5020323;28;20240;-91
2022/06/03 05:02:44;;;;;;;10.68;5.40;;;10.40;99.90;;;;;;5049879;28;20060;-92
2022/06/03 05:05:17;;;;;;;7.20;4.80;;;9.80;99.90;;;;;;5099042;28;20062;-95
2022/06/03 05:08:24;;;;;;;7.65;5.60;;;10.60;99.90;;;;;;5081748;28;20040;-90
2022/06/03 05:11:27;;;;;;;6.50;5.03;;;10.80;99.90;;;;;;5020357;28;20483;-90
2022/06/03 05:14:34;;;;;;;9.67;5.13;;;10.90;99.90;;;;;;5075425;28;20058;-86
2022/06/03 05:17:32;;;;;;;8.45;5.07;;;11.00;99.90;;;;;;5065399;28;20110;-86
2022/06/03 05:20:00;;;;;;;7.82;4.55;;;11.10;99.90;;;;;;5103115;28;20085;-89
2022/06/03 05:22:37;;;;;;;8.55;4.93;;;11.20;99.90;;;;;;5103825;28;20036;-83
2022/06/03 05:25:42;;;;;;;6.82;4.60;;;11.30;99.90;;;;;;5095510;28;20100;-88
2022/06/03 05:28:19;;;;;;;5.22;4.38;;;11.40;99.90;;;;;;5091895;28;20098;-87
2022/06/03 05:31:14;;;;;;;6.88;4.47;;;11.50;99.90;;;;;;5098284;28;20043;-85
2022/06/03 05:34:20;;;;;;;7.47;5.07;;;11.60;99.90;;;;;;5114754;28;20047;-84
2022/06/03 05:36:57;;;;;;;8.63;3.55;;;11.70;99.90;;;;;;5095584;28;20437;-85
2022/06/03 05:39:38;;;;;;;6.00;4.15;;;11.90;99.90;;;;;;5095612;28;20047;-90
2022/06/03 05:42:23;;;;;;;4.88;3.97;;;12.00;99.90;;;;;;5074339;28;20130;-87
2022/06/03 05:45:26;;;;;;;7.47;4.13;;;12.10;99.90;;;;;;5095020;28;20056;-87
2022/06/03 05:48:11;;;;;;;9.60;4.53;;;12.20;99.90;;;;;;5072777;28;20329;-85
2022/06/03 05:50:46;;;;;;;5.82;4.05;;;12.30;99.90;;;;;;5107891;28;20495;-88
2022/06/03 05:53:14;;;;;;;6.72;3.78;;;12.40;99.90;;;;;;5062527;28;20190;-86
2022/06/03 05:55:53;;;;;;;5.10;3.92;;;12.40;99.90;;;;;;5052123;28;20052;-83
2022/06/03 05:58:40;;;;;;;5.85;4.35;;;13.10;99.90;;;;;;5068582;28;20503;-85
2022/06/03 06:01:44;;;;;;;7.75;4.00;;;12.60;99.90;;;;;;5068249;28;20040;-84
2022/06/03 06:04:09;;;;;;;;;;;12.70;99.90;;;;;;5069352;28;20047;-84
2022/06/03 06:06:43;;;;;;;6.50;3.58;;;12.90;99.90;;;;;;5086626;28;19927;-84
2022/06/03 06:09:28;;;;;;;7.40;4.03;;;13.00;99.90;;;;;;5086997;28;20040;-84
2022/06/03 06:11:56;;;;;;;6.90;3.97;;;13.10;99.90;;;;;;5087280;28;20581;-84
2022/06/03 06:14:47;;;;;;;8.85;3.13;;;13.20;99.90;;;;;;5085974;28;20043;-84
2022/06/03 06:17:35;;;;;;;6.38;2.80;;;13.30;99.90;;;;;;5068280;28;20051;-84
2022/06/03 06:20:30;;;;;;;4.03;2.28;;;13.40;99.90;;;;;;5046592;28;20131;-84
2022/06/03 06:23:16;;;;;;;3.20;2.85;;;13.50;99.90;;;;;;5065379;28;20478;-84
2022/06/03 06:25:51;;;;;;;4.60;2.17;;;13.60;99.90;;;;;;5067705;28;20044;-84
2022/06/03 06:28:41;;;;;;;4.68;1.67;;;13.70;99.90;;;;;;5067828;28;20055;-84
2022/06/03 06:31:15;;;;;;;4.55;2.53;;;13.80;99.90;;;;;;5085580;28;20048;-84
2022/06/03 06:34:08;;;;;;;6.55;2.60;;;13.80;99.90;;;;;;5068611;28;20082;-84
2022/06/03 06:36:54;;;;;;;6.47;2.85;;;13.30;99.90;;;;;;5086347;28;20032;-84
2022/06/03 06:39:30;;;;;;;4.65;2.13;;;14.00;99.90;;;;;;5086133;28;20117;-84
2022/06/03 06:42:22;;;;;;;4.63;1.60;;;14.10;99.90;;;;;;5068834;28;20217;-84
2022/06/03 06:44:53;;;;;;;3.08;1.58;;;14.30;99.90;;;;;;5067580;28;20547;-85
2022/06/03 06:47:25;;;;;;;3.95;1.85;;;14.40;99.90;;;;;;5067846;28;20470;-85
2022/06/03 06:50:21;;;;;;;5.27;1.50;;;14.90;99.90;;;;;;5068202;28;20079;-81
2022/06/03 06:53:08;;;;;;;4.07;1.58;;;14.70;99.90;;;;;;5091016;28;20101;-81
2022/06/03 06:55:39;;;;;;;3.60;1.50;;;14.80;99.90;;;;;;5106517;28;20047;-81
2022/06/03 06:58:19;;;;;;;2.40;1.08;;;14.90;99.90;;;;;;5088270;28;20146;-81
2022/06/03 07:00:46;;;;;;;2.75;1.58;;;15.00;99.90;;;;;;5087982;28;20028;-81
2022/06/03 07:03:43;;;;;;;5.20;1.90;;;15.10;99.90;;;;;;5089042;28;20047;-85
2022/06/03 07:06:25;;;;;;;3.60;1.40;;;15.20;99.90;;;;;;5106543;28;20418;-83
2022/06/03 07:09:10;;;;;;;3.95;1.67;;;15.30;99.90;;;;;;5089924;28;20043;-84
2022/06/03 07:11:53;;;;;;;2.00;1.10;;;15.30;99.90;;;;;;5089862;28;20035;-84
2022/06/03 07:14:26;;;;;;;2.85;1.23;;;15.40;99.90;;;;;;5105821;28;20044;-86
2022/06/03 07:20:21;;;;;;;3.33;1.20;;;15.60;99.90;;;;;;5106352;28;20134;-86
2022/06/03 07:23:16;;;;;;;2.85;1.10;;;15.80;99.90;;;;;;5070394;28;20044;-84
2022/06/03 07:25:48;;;;;;;2.83;0.98;;;15.90;99.90;;;;;;5106705;28;20039;-85
2022/06/03 07:28:36;;;;;;;4.57;1.00;;;16.00;99.90;;;;;;5087663;28;20039;-85
2022/06/03 07:31:25;;;;;;;3.35;0.88;;;16.10;99.90;;;;;;5072093;28;20082;-85
2022/06/03 07:34:14;;;;;;;2.50;0.80;;;16.20;99.90;;;;;;5106256;28;20040;-89
2022/06/03 07:36:58;;;;;;;3.63;0.80;;;16.30;99.90;;;;;;5087648;28;20041;-83
2022/06/03 07:39:53;;;;;;;3.00;0.70;;;16.50;99.90;;;;;;5073408;28;20130;-85
2022/06/03 07:42:43;;;;;;;0.93;0.43;;;16.60;99.90;;;;;;5110866;28;20058;-83
2022/06/03 07:45:26;;;;;;;2.40;1.00;;;16.70;99.90;;;;;;5092655;28;20113;-83
2022/06/03 07:47:58;;;;;;;2.47;0.60;;;16.80;99.90;;;;;;5110884;28;20039;-83
2022/06/03 07:50:26;;;;;;;1.20;0.65;;;16.80;99.90;;;;;;5112005;28;20113;-82
2022/06/03 07:52:59;;;;;;;1.90;0.63;;;16.90;99.90;;;;;;5091551;28;20043;-83
2022/06/03 07:55:28;;;;;;;1.35;0.40;;;17.00;99.90;;;;;;5093352;28;20077;-85
2022/06/03 07:57:58;;;;;;;1.75;0.70;;;17.10;99.90;;;;;;5091921;28;20081;-83
2022/06/03 08:00:25;;;;;;;1.92;0.57;;;17.20;99.90;;;;;;5092413;28;20112;-84
2022/06/03 08:03:06;;;;;;;1.20;0.60;;;17.30;99.90;;;;;;5093740;28;20043;-84
2022/06/03 08:05:33;;;;;;;1.38;0.60;;;17.40;99.90;;;;;;5109537;28;20559;-84
2022/06/03 08:11:00;;;;;;;1.27;0.63;;;17.50;99.90;;;;;;5109914;28;20087;-84
2022/06/03 08:13:42;;;;;;;1.60;0.68;;;17.60;99.90;;;;;;5091887;28;20058;-85
2022/06/03 08:16:31;;;;;;;2.20;0.55;;;17.70;99.90;;;;;;5074992;28;20119;-86
2022/06/03 08:19:07;;;;;;;1.60;0.77;;;17.70;99.90;;;;;;5112651;28;20054;-84
2022/06/03 08:21:52;;;;;;;1.02;0.60;;;17.80;99.90;;;;;;5095563;28;20091;-82
2022/06/03 08:24:40;;;;;;;1.02;0.43;;;18.00;99.90;;;;;;5096464;28;20051;-82
2022/06/03 08:27:20;;;;;;;2.38;0.70;;;18.10;99.90;;;;;;5095200;28;20075;-84
2022/06/03 08:29:55;;;;;;;5.18;0.80;;;18.30;99.90;;;;;;5114549;28;20044;-84
2022/06/03 08:32:27;;;;;;;1.20;0.60;;;18.40;99.90;;;;;;5113720;28;20043;-87
2022/06/03 08:34:55;;;;;;;2.13;0.30;;;18.70;99.90;;;;;;5078206;28;20402;-88
2022/06/03 08:37:25;;;;;;;1.52;0.60;;;18.90;99.90;;;;;;5062545;28;20684;-86
2022/06/03 08:39:58;;;;;;;2.85;0.60;;;19.00;99.90;;;;;;5077769;28;20129;-86
2022/06/03 08:42:26;;;;;;;2.15;0.40;;;19.00;99.90;;;;;;5096142;28;20059;-86
2022/06/03 08:44:58;;;;;;;2.15;0.43;;;19.00;99.90;;;;;;5112180;28;20134;-86
2022/06/03 08:47:42;;;;;;;7.77;0.40;;;19.00;99.90;;;;;;5093262;28;20055;-86
2022/06/03 08:50:22;;;;;;;1.27;0.40;;;19.10;99.00;;;;;;5115551;28;20278;-87
2022/06/03 08:53:14;;;;;;;1.52;0.50;;;19.20;99.50;;;;;;5098164;28;20058;-85
2022/06/03 08:55:46;;;;;;;1.35;0.50;;;19.30;97.60;;;;;;5094591;28;20098;-85
2022/06/03 08:58:54;;;;;;;3.13;0.60;;;19.40;98.60;;;;;;5110378;28;20526;-84
2022/06/03 09:01:27;;;;;;;2.25;0.57;;;19.40;97.00;;;;;;5047712;28;20054;-84
2022/06/03 09:04:11;;;;;;;1.70;0.55;;;19.60;95.70;;;;;;5109601;28;20118;-87
2022/06/03 09:06:59;;;;;;;0.60;0.40;;;19.60;94.70;;;;;;5108217;28;20055;-84
2022/06/03 09:09:44;;;;;;;1.63;0.40;;;19.70;94.90;;;;;;5107836;28;20055;-84
2022/06/03 09:12:27;;;;;;;1.13;0.50;;;19.40;93.70;;;;;;5109385;28;20416;-85
2022/06/03 09:14:54;;;;;;;4.22;0.60;;;20.00;93.70;;;;;;5107894;28;20417;-86
2022/06/03 09:17:41;;;;;;;2.15;0.60;;;20.10;95.70;;;;;;5089957;28;20052;-91
2022/06/03 09:20:18;;;;;;;2.78;0.50;;;20.20;94.00;;;;;;5090989;28;20430;-85
2022/06/03 09:22:45;;;;;;;1.40;0.70;;;20.40;93.30;;;;;;5088954;28;20194;-91
2022/06/03 09:25:13;;;;;;;3.05;0.60;;;20.40;94.40;;;;;;5057310;28;20050;-88
2022/06/03 09:27:41;;;;;;;1.52;0.60;;;20.50;93.80;;;;;;5072139;28;20051;-90
2022/06/03 09:30:09;;;;;;;1.70;0.60;;;20.60;93.40;;;;;;5090288;28;20440;-90
2022/06/03 09:32:41;;;;;;;3.38;0.70;;;20.60;92.30;;;;;;5090152;28;20035;-89
2022/06/03 09:35:12;;;;;;;2.67;0.47;;;20.60;92.30;;;;;;5072666;28;20499;-88
2022/06/03 09:37:44;;;;;;;4.90;0.68;;;20.70;92.50;;;;;;5074999;28;20109;-89
2022/06/03 09:40:20;;;;;;;2.00;0.65;;;20.70;91.20;;;;;;5094172;28;20038;-89
2022/06/03 09:42:54;;;;;;;3.53;0.73;;;20.70;88.60;;;;;;5085904;28;20478;-89
2022/06/03 09:45:21;;;;;;;0.93;0.73;;;20.70;88.70;;;;;;5086544;28;20129;-90
2022/06/03 09:47:49;;;;;;;2.80;1.10;;;20.80;90.30;;;;;;5073026;28;20066;-89
2022/06/03 09:50:17;;;;;;;1.60;0.40;;;20.90;88.90;;;;;;5074597;28;20043;-88
2022/06/03 09:52:43;;;;;;;3.78;0.82;;;20.90;89.80;;;;;;5071402;28;20058;-88
2022/06/03 09:55:34;;;;;;;1.90;0.70;;;21.00;90.50;;;;;;5073419;28;20134;-88
2022/06/03 09:58:01;;;;;;;2.42;0.70;;;21.10;82.40;;;;;;5089743;28;20048;-88
2022/06/03 10:00:59;;;;;;;1.98;0.75;;;21.10;89.70;;;;;;5088877;28;20469;-89
2022/06/03 10:03:26;;;;;;;1.67;0.60;;;21.30;84.90;;;;;;5090544;28;20055;-87
2022/06/03 10:05:55;;;;;;;1.70;0.80;;;21.40;87.30;;;;;;5071965;28;20035;-90
2022/06/03 10:14:03;;;;;;;1.48;0.60;;;21.70;89.10;;;;;;5074280;28;20051;-91
2022/06/03 10:16:30;;;;;;;1.15;0.70;;;21.80;86.90;;;;;;5073947;28;20052;-87
2022/06/03 10:18:56;;;;;;;1.92;0.60;;;21.80;82.80;;;;;;5073860;28;20063;-93
2022/06/03 10:21:22;;;;;;;3.45;0.73;;;21.80;81.80;;;;;;5057577;28;20047;-92
2022/06/03 10:23:54;;;;;;;4.00;0.60;;;21.90;83.80;;;;;;5075531;28;20039;-92
2022/06/03 10:26:21;;;;;;;0.95;0.68;;;22.00;85.40;;;;;;5075305;28;20040;-92
2022/06/03 10:28:50;;;;;;;3.42;1.25;;;22.20;83.70;;;;;;5077749;28;20073;-92
2022/06/03 10:31:20;;;;;;;2.65;0.90;;;22.20;80.20;;;;;;5072326;28;20040;-94
2022/06/03 10:33:54;;;;;;;1.55;0.70;;;22.30;78.50;;;;;;5073774;28;20054;-93
2022/06/03 10:36:32;;;;;;;3.55;0.82;;;22.30;75.50;;;;;;5056254;28;20040;-92
2022/06/03 10:38:58;;;;;;;1.63;0.90;;;22.30;77.20;;;;;;5073984;28;20036;-87
2022/06/03 10:41:40;;;;;;;1.80;0.70;;;22.30;77.00;;;;;;5089795;28;20497;-89
2022/06/03 10:44:21;;;;;;;3.45;1.02;;;22.30;72.40;;;;;;5071639;28;20409;-91
2022/06/03 10:47:02;;;;;;;1.60;1.00;;;22.40;73.10;;;;;;5074098;28;20047;-91
2022/06/03 10:49:30;;;;;;;1.67;0.90;;;22.40;74.10;;;;;;5093316;28;20051;-92
2022/06/03 11:03:04;;;;;;;3.47;1.17;;;22.60;76.80;;;;;;5089487;28;20047;-87
2022/06/03 11:05:31;;;;;;;1.38;0.80;;;22.70;75.90;;;;;;5072049;28;20047;-87
2022/06/03 11:08:10;;;;;;;1.65;0.88;;;22.80;75.00;;;;;;5072170;28;20071;-87
2022/06/03 11:10:38;;;;;;;2.92;1.08;;;23.10;71.90;;;;;;5070153;28;20040;-84
2022/06/03 11:13:06;;;;;;;3.47;1.00;;;23.10;70.80;;;;;;5105540;28;20057;-84
2022/06/03 11:15:38;;;;;;;0.80;0.68;;;23.10;70.20;;;;;;5087804;28;20071;-88
2022/06/03 11:18:13;;;;;;;;;;;23.20;69.20;;;;;;5105328;28;20088;-82
2022/06/03 11:20:40;;;;;;;2.35;0.73;;;23.20;63.00;;;;;;5106876;28;20072;-82
2022/06/03 11:23:08;;;;;;;1.00;0.85;;;23.20;69.20;;;;;;5104495;28;20177;-82
2022/06/03 11:25:39;;;;;;;3.05;0.68;;;23.20;68.50;;;;;;5088643;28;20397;-83
2022/06/03 11:28:16;;;;;;;0.95;0.70;;;23.20;68.30;;;;;;5088072;28;20052;-83
2022/06/03 11:30:56;;;;;;;2.00;0.73;;;23.40;67.70;;;;;;5070263;28;20126;-82
2022/06/03 11:33:22;;;;;;;2.25;0.73;;;23.40;62.60;;;;;;5107088;28;20043;-83
2022/06/03 11:35:54;;;;;;;9.50;0.93;;;23.20;65.30;;;;;;5104879;28;20467;-83
2022/06/03 11:38:24;;;;;;;;;;;23.30;65.30;;;;;;5089385;28;20066;-84
2022/06/03 11:40:54;;;;;;;2.42;0.73;;;23.50;63.20;;;;;;5092520;28;19919;-83
2022/06/03 11:43:47;;;;;;;1.35;0.80;;;23.50;63.90;;;;;;5093316;28;20051;-83
2022/06/03 11:46:22;;;;;;;;;;;23.60;62.30;;;;;;5104363;28;20051;-82
2022/06/03 11:48:52;;;;;;;5.90;1.30;;;23.60;61.90;;;;;;5111350;28;19970;-82
2022/06/03 11:51:19;;;;;;;2.20;0.88;;;23.70;65.90;;;;;;5113461;28;20044;-89
2022/06/03 11:53:50;;;;;;;5.82;1.08;;;23.70;64.10;;;;;;5082513;28;20135;-90
2022/06/03 11:56:21;;;;;;;2.67;1.10;;;23.80;64.10;;;;;;5081713;28;20490;-90
2022/06/03 11:59:11;;;;;;;1.00;0.70;;;24.00;63.50;;;;;;5083024;28;20064;-92
2022/06/03 12:01:49;;;;;;;2.20;0.98;;;24.00;59.10;;;;;;5082288;28;20043;-94
2022/06/03 12:04:39;;;;;;;1.45;0.95;;;24.00;63.70;;;;;;5085175;28;20047;-94
2022/06/03 12:07:24;;;;;;;2.78;0.90;;;24.20;63.30;;;;;;5083574;28;20048;-95
2022/06/03 12:10:15;;;;;;;0.90;0.60;;;24.30;59.90;;;;;;5081182;28;20176;-94
2022/06/03 12:15:34;;;;;;;2.35;0.60;;;24.60;60.60;;;;;;5099375;28;20286;-94
2022/06/03 12:18:06;;;;;;;1.00;0.63;;;24.70;61.10;;;;;;5082052;28;20035;-91
2022/06/03 12:20:50;;;;;;;1.58;0.77;;;24.70;59.10;;;;;;5081710;28;20043;-91
2022/06/03 12:23:16;;;;;;;1.70;0.40;;;24.70;59.60;;;;;;5078328;28;20039;-89
2022/06/03 12:25:43;;;;;;;1.85;0.65;;;24.90;59.40;;;;;;5097662;28;20118;-89
2022/06/03 12:28:24;;;;;;;2.55;0.55;;;25.10;58.60;;;;;;5079002;28;20100;-89
2022/06/03 12:30:52;;;;;;;1.30;0.57;;;24.90;57.40;;;;;;5095987;28;20118;-88
2022/06/03 12:33:28;;;;;;;1.20;0.50;;;25.40;58.30;;;;;;5097441;28;20068;-89
2022/06/03 12:36:01;;;;;;;3.90;0.50;;;25.30;56.70;;;;;;5112706;28;20044;-88
2022/06/03 12:38:33;;;;;;;1.92;0.70;;;25.00;57.40;;;;;;5097740;28;20040;-89
2022/06/03 12:41:04;;;;;;;2.40;0.60;;;25.00;57.60;;;;;;5096716;28;20048;-88
2022/06/03 12:43:31;;;;;;;1.20;0.47;;;25.00;57.90;;;;;;5079919;28;20058;-88
2022/06/03 12:46:00;;;;;;;2.08;0.60;;;25.50;58.10;;;;;;5103709;28;20038;-88
2022/06/03 12:48:37;;;;;;;2.25;0.47;;;25.10;57.40;;;;;;5094006;28;20047;-89
2022/06/03 12:51:17;;;;;;;4.40;0.70;;;25.20;56.80;;;;;;5105388;28;20047;-89
2022/06/03 12:53:44;;;;;;;0.85;0.30;;;24.90;55.10;;;;;;5099603;28;20182;-88
2022/06/03 12:56:36;;;;;;;8.10;0.50;;;24.60;57.90;;;;;;5095716;28;20410;-89
2022/06/03 12:59:22;;;;;;;1.50;0.52;;;24.50;56.90;;;;;;5093042;28;20040;-89
2022/06/03 13:02:00;;;;;;;1.42;0.40;;;24.40;57.30;;;;;;5106932;28;20052;-82
2022/06/03 13:04:36;;;;;;;1.92;0.60;;;24.30;58.60;;;;;;5108176;28;20043;-83
2022/06/03 13:07:25;;;;;;;1.80;0.50;;;24.30;59.70;;;;;;5109249;28;20044;-90
2022/06/03 13:10:01;;;;;;;4.93;0.40;;;24.20;57.80;;;;;;5087794;28;20055;-83
2022/06/03 13:12:34;;;;;;;5.18;0.50;;;24.20;59.80;;;;;;5108532;28;20051;-83
2022/06/03 13:15:22;;;;;;;3.75;0.55;;;24.20;60.70;;;;;;5105838;28;20055;-82
2022/06/03 13:17:58;;;;;;;3.33;0.60;;;24.10;61.10;;;;;;5107052;28;20051;-82
2022/06/03 13:20:48;;;;;;;0.50;0.30;;;24.10;60.70;;;;;;5107767;28;20040;-79
2022/06/03 13:23:20;;;;;;;3.55;0.57;;;24.40;59.40;;;;;;5087629;28;20116;-83
2022/06/03 13:25:51;;;;;;;0.95;0.25;;;24.00;59.60;;;;;;5089979;28;20398;-82
2022/06/03 13:28:47;;;;;;;1.98;0.30;;;23.90;60.60;;;;;;5106874;28;20039;-82
2022/06/03 13:31:41;;;;;;;1.13;0.50;;;23.90;57.00;;;;;;5089490;28;20047;-82
2022/06/03 13:34:10;;;;;;;1.88;0.40;;;24.00;56.70;;;;;;5072720;28;20132;-81
2022/06/03 13:36:37;;;;;;;2.85;0.60;;;23.90;58.50;;;;;;5106550;28;20116;-80
2022/06/03 13:39:05;;;;;;;2.95;0.40;;;23.90;58.60;;;;;;5107706;28;20043;-79
2022/06/03 13:44:41;;;;;;;2.78;0.40;;;24.30;58.70;;;;;;5086760;28;20085;-83
2022/06/03 13:47:08;;;;;;;;;;;24.50;57.40;;;;;;5108449;28;20043;-83
2022/06/03 13:49:36;;;;;;;4.00;0.35;;;24.50;55.80;;;;;;5106336;28;19919;-81
2022/06/03 13:52:04;;;;;;;0.60;0.30;;;24.30;57.10;;;;;;5106436;28;20126;-82
2022/06/03 13:54:33;;;;;;;1.67;0.50;;;24.40;58.10;;;;;;5106720;28;20058;-81
2022/06/03 13:57:20;;;;;;;0.90;0.30;;;24.40;57.20;;;;;;5106081;28;20109;-81
2022/06/03 13:59:47;;;;;;;0.85;0.45;;;24.40;56.30;;;;;;5107809;28;20043;-81
2022/06/03 14:02:34;;;;;;;1.83;0.38;;;24.40;56.50;;;;;;5087980;28;20058;-81
2022/06/03 14:05:15;;;;;;;1.80;0.40;;;24.30;55.30;;;;;;5106190;28;20047;-81
2022/06/03 14:07:52;;;;;;;4.85;0.43;;;24.30;55.70;;;;;;5107535;28;20036;-81
2022/06/03 14:10:24;;;;;;;4.53;0.43;;;24.40;54.80;;;;;;5105022;28;20050;-81
2022/06/03 14:13:01;;;;;;;1.55;0.30;;;24.30;54.50;;;;;;5107125;28;20051;-81
2022/06/03 14:15:50;;;;;;;3.00;0.30;;;24.30;52.20;;;;;;5106261;28;20047;-80
2022/06/03 14:18:55;;;;;;;1.63;0.35;;;24.20;51.30;;;;;;5105344;28;20039;-85
2022/06/03 14:21:32;;;;;;;2.78;0.30;;;24.10;51.90;;;;;;5047792;28;20506;-81
2022/06/03 14:24:04;;;;;;;0.57;0.13;;;24.10;52.10;;;;;;5087209;28;20059;-83
2022/06/03 14:26:39;;;;;;;1.58;0.35;;;24.10;52.10;;;;;;5105558;28;20058;-81
2022/06/03 14:29:13;;;;;;;4.90;0.35;;;24.00;51.40;;;;;;5106814;28;20051;-81
2022/06/03 14:31:48;;;;;;;0.40;0.28;;;23.90;51.90;;;;;;5104656;28;20065;-82
2022/06/03 14:34:19;;;;;;;0.90;0.30;;;23.90;50.40;;;;;;5109927;28;20530;-81